sensor_id;sensor_type;location;lat;lon;timestamp;pressure;altitude;pressure_sealevel;temperature;humidity
7309;BME280;3695;53.330;9.876;2023-02-18T00:00:13;102832.78;;;6.24;100.00
7309;BME280;3695;53.330;9.876;2023-02-18T00:02:39;102850.78;;;6.33;100.00
7309;BME280;3695;53.330;9.876;2023-02-18T00:05:06;102834.63;;;6.23;100.00
7309;BME280;3695;53.330;9.876;2023-02-18T00:07:33;102838.56;;;6.19;100.00
7309;BME280;3695;53.330;9.876;2023-02-18T00:10:00;102841.84;;;6.23;100.00
7309;BME280;3695;53.330;9.876;2023-02-18T00:12:29;102841.16;;;6.30;100.00
7309;BME280;3695;53.330;9.876;2023-02-18T00:14:55;102853.47;;;6.23;100.00
7309;BME280;3695;53.330;9.876;2023-02-18T00:17:22;102855.31;;;6.32;100.00
7309;BME280;3695;53.330;9.876;2023-02-18T00:19:48;102855.59;;;6.29;100.00
7309;BME280;3695;53.330;9.876;2023-02-18T00:22:15;102860.13;;;6.29;100.00
7309;BME280;3695;53.330;9.876;2023-02-18T00:24:41;102868.91;;;6.31;100.00
7309;BME280;3695;53.330;9.876;2023-02-18T00:27:08;102852.47;;;6.24;100.00
7309;BME280;3695;53.330;9.876;2023-02-18T00:29:36;102859.84;;;6.22;100.00
7309;BME280;3695;53.330;9.876;2023-02-18T00:32:02;102857.84;;;6.24;100.00
7309;BME280;3695;53.330;9.876;2023-02-18T00:34:29;102863.75;;;6.09;100.00
7309;BME280;3695;53.330;9.876;2023-02-18T00:36:55;102851.56;;;6.14;100.00
7309;BME280;3695;53.330;9.876;2023-02-18T00:39:22;102873.59;;;6.19;100.00
7309;BME280;3695;53.330;9.876;2023-02-18T00:41:48;102874.88;;;6.25;100.00
7309;BME280;3695;53.330;9.876;2023-02-18T00:44:15;102876.56;;;6.16;100.00
7309;BME280;3695;53.330;9.876;2023-02-18T00:46:42;102877.94;;;6.11;100.00
7309;BME280;3695;53.330;9.876;2023-02-18T00:49:12;102872.94;;;5.96;100.00
7309;BME280;3695;53.330;9.876;2023-02-18T00:51:38;102887.59;;;5.83;100.00
7309;BME280;3695;53.330;9.876;2023-02-18T00:54:05;102900.25;;;5.92;100.00
7309;BME280;3695;53.330;9.876;2023-02-18T00:56:32;102903.66;;;5.94;100.00
7309;BME280;3695;53.330;9.876;2023-02-18T00:58:58;102906.22;;;5.95;100.00
7309;BME280;3695;53.330;9.876;2023-02-18T01:01:25;102899.63;;;5.79;100.00
7309;BME280;3695;53.330;9.876;2023-02-18T01:03:53;102907.97;;;5.76;100.00
7309;BME280;3695;53.330;9.876;2023-02-18T01:06:20;102921.09;;;5.90;100.00
7309;BME280;3695;53.330;9.876;2023-02-18T01:08:47;102929.53;;;5.85;100.00
7309;BME280;3695;53.330;9.876;2023-02-18T01:11:14;102930.75;;;5.72;100.00
7309;BME280;3695;53.330;9.876;2023-02-18T01:13:40;102939.47;;;5.64;100.00
7309;BME280;3695;53.330;9.876;2023-02-18T01:16:08;102959.09;;;5.76;100.00
7309;BME280;3695;53.330;9.876;2023-02-18T01:18:35;102972.69;;;5.74;100.00
7309;BME280;3695;53.330;9.876;2023-02-18T01:21:04;102982.31;;;5.77;100.00
7309;BME280;3695;53.330;9.876;2023-02-18T01:23:32;102977.19;;;5.74;100.00
7309;BME280;3695;53.330;9.876;2023-02-18T01:25:59;103000.44;;;5.75;100.00
7309;BME280;3695;53.330;9.876;2023-02-18T01:28:25;103000.16;;;5.78;100.00
7309;BME280;3695;53.330;9.876;2023-02-18T01:30:52;102991.81;;;5.60;100.00
7309;BME280;3695;53.330;9.876;2023-02-18T01:33:20;103018.56;;;5.73;100.00
7309;BME280;3695;53.330;9.876;2023-02-18T01:35:46;103023.66;;;5.76;100.00
7309;BME280;3695;53.330;9.876;2023-02-18T01:38:14;103036.41;;;5.74;100.00
7309;BME280;3695;53.330;9.876;2023-02-18T01:40:46;103039.25;;;5.61;100.00
7309;BME280;3695;53.330;9.876;2023-02-18T01:43:13;103063.91;;;5.77;100.00
7309;BME280;3695;53.330;9.876;2023-02-18T01:45:55;103055.53;;;5.59;100.00
7309;BME280;3695;53.330;9.876;2023-02-18T01:48:24;103067.25;;;5.69;100.00
7309;BME280;3695;53.330;9.876;2023-02-18T01:50:56;103083.38;;;5.69;100.00
7309;BME280;3695;53.330;9.876;2023-02-18T01:53:28;103089.25;;;5.63;100.00
7309;BME280;3695;53.330;9.876;2023-02-18T01:55:57;103114.19;;;5.65;100.00
7309;BME280;3695;53.330;9.876;2023-02-18T01:58:25;103129.78;;;5.83;100.00
7309;BME280;3695;53.330;9.876;2023-02-18T02:00:51;103125.72;;;5.88;100.00
7309;BME280;3695;53.330;9.876;2023-02-18T02:03:18;103127.97;;;5.83;100.00
7309;BME280;3695;53.330;9.876;2023-02-18T02:05:44;103134.19;;;5.84;100.00
7309;BME280;3695;53.330;9.876;2023-02-18T02:08:11;103130.53;;;5.85;100.00
7309;BME280;3695;53.330;9.876;2023-02-18T02:10:50;103127.78;;;5.96;100.00
7309;BME280;3695;53.330;9.876;2023-02-18T02:13:27;103128.66;;;5.96;100.00
7309;BME280;3695;53.330;9.876;2023-02-18T02:16:00;103126.22;;;5.93;100.00
7309;BME280;3695;53.330;9.876;2023-02-18T02:18:38;103132.31;;;5.95;100.00
7309;BME280;3695;53.330;9.876;2023-02-18T02:21:44;103129.25;;;6.00;100.00
7309;BME280;3695;53.330;9.876;2023-02-18T02:25:08;103127.59;;;6.09;100.00
7309;BME280;3695;53.330;9.876;2023-02-18T02:27:58;103120.44;;;5.98;100.00
7309;BME280;3695;53.330;9.876;2023-02-18T02:30:42;103114.09;;;6.20;100.00
7309;BME280;3695;53.330;9.876;2023-02-18T02:33:47;103098.44;;;6.14;100.00
7309;BME280;3695;53.330;9.876;2023-02-18T02:36:22;103089.97;;;6.18;100.00
7309;BME280;3695;53.330;9.876;2023-02-18T02:38:55;103076.53;;;6.18;100.00
7309;BME280;3695;53.330;9.876;2023-02-18T02:41:33;103072.97;;;6.18;100.00
7309;BME280;3695;53.330;9.876;2023-02-18T02:44:11;103066.38;;;6.31;100.00
7309;BME280;3695;53.330;9.876;2023-02-18T02:46:44;103051.78;;;6.34;100.00
7309;BME280;3695;53.330;9.876;2023-02-18T02:49:20;103041.59;;;6.38;100.00
7309;BME280;3695;53.330;9.876;2023-02-18T02:51:57;103027.69;;;6.32;100.00
7309;BME280;3695;53.330;9.876;2023-02-18T02:54:26;103023.72;;;6.37;100.00
7309;BME280;3695;53.330;9.876;2023-02-18T02:57:04;103020.31;;;6.35;100.00
7309;BME280;3695;53.330;9.876;2023-02-18T02:59:32;103004.28;;;6.33;100.00
7309;BME280;3695;53.330;9.876;2023-02-18T03:02:13;103000.13;;;6.19;100.00
7309;BME280;3695;53.330;9.876;2023-02-18T03:10:52;102972.72;;;6.45;100.00
7309;BME280;3695;53.330;9.876;2023-02-18T03:13:28;102968.19;;;6.45;100.00
7309;BME280;3695;53.330;9.876;2023-02-18T03:16:01;102960.66;;;6.49;100.00
7309;BME280;3695;53.330;9.876;2023-02-18T03:18:37;102957.59;;;6.63;100.00
7309;BME280;3695;53.330;9.876;2023-02-18T03:21:09;102938.69;;;6.53;100.00
7309;BME280;3695;53.330;9.876;2023-02-18T03:23:43;102938.84;;;6.61;100.00
7309;BME280;3695;53.330;9.876;2023-02-18T03:26:12;102946.66;;;6.55;100.00
7309;BME280;3695;53.330;9.876;2023-02-18T03:28:41;102936.84;;;6.54;100.00
7309;BME280;3695;53.330;9.876;2023-02-18T03:31:11;102932.19;;;6.56;100.00
7309;BME280;3695;53.330;9.876;2023-02-18T03:33:42;102939.59;;;6.63;100.00
7309;BME280;3695;53.330;9.876;2023-02-18T03:36:11;102941.88;;;6.68;100.00
7309;BME280;3695;53.330;9.876;2023-02-18T03:38:43;102939.59;;;6.73;100.00
7309;BME280;3695;53.330;9.876;2023-02-18T03:41:11;102939.97;;;6.59;100.00
7309;BME280;3695;53.330;9.876;2023-02-18T03:43:39;102936.03;;;6.63;100.00
7309;BME280;3695;53.330;9.876;2023-02-18T03:46:05;102942.72;;;6.78;100.00
7309;BME280;3695;53.330;9.876;2023-02-18T03:48:32;102935.06;;;6.74;100.00
7309;BME280;3695;53.330;9.876;2023-02-18T03:50:59;102930.81;;;6.71;100.00
7309;BME280;3695;53.330;9.876;2023-02-18T03:53:25;102940.88;;;6.69;100.00
7309;BME280;3695;53.330;9.876;2023-02-18T03:55:53;102945.41;;;6.78;100.00
7309;BME280;3695;53.330;9.876;2023-02-18T03:58:19;102947.94;;;6.60;100.00
7309;BME280;3695;53.330;9.876;2023-02-18T04:00:46;102961.00;;;6.65;100.00
7309;BME280;3695;53.330;9.876;2023-02-18T04:03:12;102964.94;;;6.61;100.00
7309;BME280;3695;53.330;9.876;2023-02-18T04:05:38;102976.47;;;6.63;100.00
7309;BME280;3695;53.330;9.876;2023-02-18T04:08:05;102992.34;;;6.66;100.00
7309;BME280;3695;53.330;9.876;2023-02-18T04:10:31;102984.34;;;6.55;100.00
7309;BME280;3695;53.330;9.876;2023-02-18T04:12:59;102990.38;;;6.68;100.00
7309;BME280;3695;53.330;9.876;2023-02-18T04:15:26;103004.13;;;6.65;100.00
7309;BME280;3695;53.330;9.876;2023-02-18T04:17:52;103016.13;;;6.61;100.00
7309;BME280;3695;53.330;9.876;2023-02-18T04:20:19;103011.06;;;6.68;100.00
7309;BME280;3695;53.330;9.876;2023-02-18T04:22:46;103001.69;;;6.62;100.00
7309;BME280;3695;53.330;9.876;2023-02-18T04:25:13;103011.66;;;6.71;100.00
7309;BME280;3695;53.330;9.876;2023-02-18T04:27:39;102999.75;;;6.83;100.00
7309;BME280;3695;53.330;9.876;2023-02-18T04:30:08;102993.63;;;6.72;100.00
7309;BME280;3695;53.330;9.876;2023-02-18T04:32:34;102989.97;;;6.73;100.00
7309;BME280;3695;53.330;9.876;2023-02-18T04:35:01;102998.88;;;6.73;100.00
7309;BME280;3695;53.330;9.876;2023-02-18T04:37:29;103000.22;;;6.48;100.00
7309;BME280;3695;53.330;9.876;2023-02-18T04:39:55;103031.44;;;6.51;100.00
7309;BME280;3695;53.330;9.876;2023-02-18T04:42:22;103049.59;;;6.58;100.00
7309;BME280;3695;53.330;9.876;2023-02-18T04:44:49;103067.16;;;6.53;100.00
7309;BME280;3695;53.330;9.876;2023-02-18T04:47:17;103083.34;;;6.53;100.00
7309;BME280;3695;53.330;9.876;2023-02-18T04:49:43;103077.13;;;6.62;100.00
7309;BME280;3695;53.330;9.876;2023-02-18T04:52:09;103084.75;;;6.57;100.00
7309;BME280;3695;53.330;9.876;2023-02-18T04:54:36;103096.09;;;6.51;100.00
7309;BME280;3695;53.330;9.876;2023-02-18T04:57:02;103089.03;;;6.59;100.00
7309;BME280;3695;53.330;9.876;2023-02-18T04:59:29;103070.22;;;6.39;100.00
7309;BME280;3695;53.330;9.876;2023-02-18T05:01:56;103085.63;;;6.57;100.00
7309;BME280;3695;53.330;9.876;2023-02-18T05:04:23;103092.56;;;6.60;100.00
7309;BME280;3695;53.330;9.876;2023-02-18T05:06:50;103088.84;;;6.51;100.00
7309;BME280;3695;53.330;9.876;2023-02-18T05:09:16;103083.69;;;6.69;100.00
7309;BME280;3695;53.330;9.876;2023-02-18T05:11:43;103076.88;;;6.65;100.00
7309;BME280;3695;53.330;9.876;2023-02-18T05:14:09;103063.75;;;6.51;100.00
7309;BME280;3695;53.330;9.876;2023-02-18T05:16:36;103060.97;;;6.62;100.00
7309;BME280;3695;53.330;9.876;2023-02-18T05:19:02;103075.63;;;6.69;100.00
7309;BME280;3695;53.330;9.876;2023-02-18T05:21:31;103053.56;;;6.54;100.00
7309;BME280;3695;53.330;9.876;2023-02-18T05:23:57;103055.06;;;6.68;100.00
7309;BME280;3695;53.330;9.876;2023-02-18T05:26:24;103059.72;;;6.66;100.00
7309;BME280;3695;53.330;9.876;2023-02-18T05:28:50;103076.69;;;6.57;100.00
7309;BME280;3695;53.330;9.876;2023-02-18T05:31:17;103103.19;;;6.52;100.00
7309;BME280;3695;53.330;9.876;2023-02-18T05:33:43;103108.75;;;6.60;100.00
7309;BME280;3695;53.330;9.876;2023-02-18T05:36:09;103135.03;;;6.68;100.00
7309;BME280;3695;53.330;9.876;2023-02-18T05:38:37;103148.38;;;6.69;100.00
7309;BME280;3695;53.330;9.876;2023-02-18T05:41:04;103167.03;;;6.61;100.00
7309;BME280;3695;53.330;9.876;2023-02-18T05:43:30;103193.47;;;6.67;100.00
7309;BME280;3695;53.330;9.876;2023-02-18T05:46:16;103209.66;;;6.67;100.00
7309;BME280;3695;53.330;9.876;2023-02-18T05:48:43;103233.19;;;6.65;100.00
7309;BME280;3695;53.330;9.876;2023-02-18T05:51:09;103261.97;;;6.65;100.00
7309;BME280;3695;53.330;9.876;2023-02-18T05:53:37;103296.16;;;6.64;100.00
7309;BME280;3695;53.330;9.876;2023-02-18T05:56:04;103337.56;;;6.63;100.00
7309;BME280;3695;53.330;9.876;2023-02-18T05:58:31;103367.94;;;6.65;100.00
7309;BME280;3695;53.330;9.876;2023-02-18T06:00:58;103389.88;;;6.49;100.00
7309;BME280;3695;53.330;9.876;2023-02-18T06:03:24;103390.81;;;6.27;100.00
7309;BME280;3695;53.330;9.876;2023-02-18T06:05:51;103435.13;;;6.35;100.00
7309;BME280;3695;53.330;9.876;2023-02-18T06:08:18;103472.69;;;6.47;100.00
7309;BME280;3695;53.330;9.876;2023-02-18T06:10:46;103494.34;;;6.57;100.00
7309;BME280;3695;53.330;9.876;2023-02-18T06:13:13;103509.53;;;6.58;100.00
7309;BME280;3695;53.330;9.876;2023-02-18T06:15:39;103512.53;;;6.21;100.00
7309;BME280;3695;53.330;9.876;2023-02-18T06:18:06;103553.66;;;6.23;100.00
7309;BME280;3695;53.330;9.876;2023-02-18T06:20:32;103562.47;;;6.48;100.00
7309;BME280;3695;53.330;9.876;2023-02-18T06:22:58;103554.63;;;6.45;100.00
7309;BME280;3695;53.330;9.876;2023-02-18T06:25:25;103569.94;;;6.44;100.00
7309;BME280;3695;53.330;9.876;2023-02-18T06:27:53;103543.34;;;6.40;100.00
7309;BME280;3695;53.330;9.876;2023-02-18T06:30:19;103554.25;;;6.38;100.00
7309;BME280;3695;53.330;9.876;2023-02-18T06:32:46;103586.72;;;6.48;100.00
7309;BME280;3695;53.330;9.876;2023-02-18T06:35:12;103589.66;;;6.34;100.00
7309;BME280;3695;53.330;9.876;2023-02-18T06:37:39;103643.53;;;6.34;100.00
7309;BME280;3695;53.330;9.876;2023-02-18T06:40:08;103712.72;;;6.33;100.00
7309;BME280;3695;53.330;9.876;2023-02-18T06:42:34;103773.09;;;6.42;100.00
7309;BME280;3695;53.330;9.876;2023-02-18T06:45:02;103802.97;;;6.39;100.00
7309;BME280;3695;53.330;9.876;2023-02-18T06:47:30;103842.88;;;6.34;100.00
7309;BME280;3695;53.330;9.876;2023-02-18T06:49:57;103877.44;;;6.40;100.00
7309;BME280;3695;53.330;9.876;2023-02-18T06:52:24;103926.03;;;6.38;100.00
7309;BME280;3695;53.330;9.876;2023-02-18T06:54:50;103972.88;;;6.48;100.00
7309;BME280;3695;53.330;9.876;2023-02-18T06:57:16;103979.72;;;6.41;100.00
7309;BME280;3695;53.330;9.876;2023-02-18T06:59:43;104031.31;;;6.48;100.00
7309;BME280;3695;53.330;9.876;2023-02-18T07:02:12;104044.56;;;6.51;100.00
7309;BME280;3695;53.330;9.876;2023-02-18T07:04:38;104003.78;;;6.55;100.00
7309;BME280;3695;53.330;9.876;2023-02-18T07:07:05;104015.88;;;6.50;100.00
7309;BME280;3695;53.330;9.876;2023-02-18T07:09:31;104067.84;;;6.52;100.00
7309;BME280;3695;53.330;9.876;2023-02-18T07:11:58;104103.41;;;6.57;100.00
7309;BME280;3695;53.330;9.876;2023-02-18T07:14:24;104093.47;;;6.57;100.00
7309;BME280;3695;53.330;9.876;2023-02-18T07:16:52;104100.19;;;6.52;100.00
7309;BME280;3695;53.330;9.876;2023-02-18T07:19:20;104146.41;;;6.58;100.00
7309;BME280;3695;53.330;9.876;2023-02-18T07:21:46;104144.16;;;6.52;100.00
7309;BME280;3695;53.330;9.876;2023-02-18T07:24:13;104178.34;;;6.52;100.00
7309;BME280;3695;53.330;9.876;2023-02-18T07:26:39;104210.25;;;6.45;100.00
7309;BME280;3695;53.330;9.876;2023-02-18T07:29:05;104263.59;;;6.53;100.00
7309;BME280;3695;53.330;9.876;2023-02-18T07:31:32;104305.69;;;6.68;100.00
7309;BME280;3695;53.330;9.876;2023-02-18T07:33:59;104292.22;;;6.68;100.00
7309;BME280;3695;53.330;9.876;2023-02-18T07:36:27;104277.63;;;6.58;100.00
7309;BME280;3695;53.330;9.876;2023-02-18T07:38:53;104314.31;;;6.73;100.00
7309;BME280;3695;53.330;9.876;2023-02-18T07:41:21;104454.63;;;6.72;100.00
7309;BME280;3695;53.330;9.876;2023-02-18T07:43:48;104381.50;;;6.76;100.00
7309;BME280;3695;53.330;9.876;2023-02-18T07:46:15;104394.25;;;6.87;100.00
7309;BME280;3695;53.330;9.876;2023-02-18T07:48:42;104454.44;;;6.87;100.00
7309;BME280;3695;53.330;9.876;2023-02-18T07:51:09;104453.47;;;6.88;100.00
7309;BME280;3695;53.330;9.876;2023-02-18T07:53:38;104473.28;;;6.75;100.00
7309;BME280;3695;53.330;9.876;2023-02-18T07:56:05;104572.75;;;6.79;100.00
7309;BME280;3695;53.330;9.876;2023-02-18T07:58:34;104628.81;;;6.74;100.00
7309;BME280;3695;53.330;9.876;2023-02-18T08:01:04;104744.56;;;6.77;100.00
7309;BME280;3695;53.330;9.876;2023-02-18T08:03:32;104878.06;;;6.84;100.00
7309;BME280;3695;53.330;9.876;2023-02-18T08:05:58;104910.59;;;6.81;100.00
7309;BME280;3695;53.330;9.876;2023-02-18T08:08:27;104991.06;;;6.89;100.00
7309;BME280;3695;53.330;9.876;2023-02-18T08:10:58;105116.59;;;6.94;100.00
7309;BME280;3695;53.330;9.876;2023-02-18T08:13:26;105158.81;;;6.95;100.00
7309;BME280;3695;53.330;9.876;2023-02-18T08:15:53;105139.06;;;6.79;100.00
7309;BME280;3695;53.330;9.876;2023-02-18T08:18:22;105206.41;;;6.97;100.00
7309;BME280;3695;53.330;9.876;2023-02-18T08:20:49;105167.06;;;6.92;100.00
7309;BME280;3695;53.330;9.876;2023-02-18T08:23:18;105243.84;;;7.03;100.00
7309;BME280;3695;53.330;9.876;2023-02-18T08:25:45;105264.53;;;6.86;100.00
7309;BME280;3695;53.330;9.876;2023-02-18T08:28:13;105392.84;;;7.08;100.00
7309;BME280;3695;53.330;9.876;2023-02-18T08:30:43;105443.09;;;6.93;100.00
7309;BME280;3695;53.330;9.876;2023-02-18T08:33:10;105689.72;;;6.89;100.00
7309;BME280;3695;53.330;9.876;2023-02-18T08:35:36;105924.22;;;6.93;100.00
7309;BME280;3695;53.330;9.876;2023-02-18T08:38:03;106074.94;;;7.03;100.00
7309;BME280;3695;53.330;9.876;2023-02-18T08:40:29;106183.41;;;7.12;100.00
7309;BME280;3695;53.330;9.876;2023-02-18T08:42:55;106205.75;;;7.16;100.00
7309;BME280;3695;53.330;9.876;2023-02-18T08:45:23;106205.09;;;7.09;100.00
7309;BME280;3695;53.330;9.876;2023-02-18T08:47:50;106259.19;;;7.06;100.00
7309;BME280;3695;53.330;9.876;2023-02-18T08:50:17;106327.34;;;7.13;100.00
7309;BME280;3695;53.330;9.876;2023-02-18T08:52:45;106406.50;;;7.13;100.00
7309;BME280;3695;53.330;9.876;2023-02-18T08:55:12;106398.47;;;7.12;100.00
7309;BME280;3695;53.330;9.876;2023-02-18T08:57:38;106479.09;;;7.21;100.00
7309;BME280;3695;53.330;9.876;2023-02-18T09:00:06;106531.94;;;7.28;100.00
7309;BME280;3695;53.330;9.876;2023-02-18T09:02:34;106533.22;;;7.18;100.00
7309;BME280;3695;53.330;9.876;2023-02-18T09:05:00;106625.69;;;7.24;100.00
7309;BME280;3695;53.330;9.876;2023-02-18T09:07:27;106733.84;;;7.20;100.00
7309;BME280;3695;53.330;9.876;2023-02-18T09:09:54;106718.78;;;7.13;100.00
7309;BME280;3695;53.330;9.876;2023-02-18T09:12:20;106794.47;;;7.10;100.00
7309;BME280;3695;53.330;9.876;2023-02-18T09:14:47;106943.84;;;7.09;100.00
7309;BME280;3695;53.330;9.876;2023-02-18T09:17:14;107033.72;;;7.14;100.00
7309;BME280;3695;53.330;9.876;2023-02-18T09:19:41;107101.81;;;7.25;100.00
7309;BME280;3695;53.330;9.876;2023-02-18T09:22:08;107143.03;;;7.32;100.00
7309;BME280;3695;53.330;9.876;2023-02-18T09:24:36;107197.09;;;7.30;100.00
7309;BME280;3695;53.330;9.876;2023-02-18T09:27:02;107295.22;;;7.31;100.00
7309;BME280;3695;53.330;9.876;2023-02-18T09:29:29;107097.94;;;7.35;100.00
7309;BME280;3695;53.330;9.876;2023-02-18T09:31:59;107226.63;;;7.36;100.00
7309;BME280;3695;53.330;9.876;2023-02-18T09:34:25;107265.22;;;7.41;100.00
7309;BME280;3695;53.330;9.876;2023-02-18T09:36:53;107212.28;;;7.34;100.00
7309;BME280;3695;53.330;9.876;2023-02-18T09:39:19;107326.13;;;7.54;100.00
7309;BME280;3695;53.330;9.876;2023-02-18T09:41:47;107505.22;;;7.61;100.00
7309;BME280;3695;53.330;9.876;2023-02-18T09:44:17;107655.44;;;7.73;100.00
7309;BME280;3695;53.330;9.876;2023-02-18T09:46:49;107750.78;;;7.81;100.00
7309;BME280;3695;53.330;9.876;2023-02-18T09:49:20;107818.25;;;7.85;100.00
7309;BME280;3695;53.330;9.876;2023-02-18T09:51:48;107144.09;;;7.89;100.00
7309;BME280;3695;53.330;9.876;2023-02-18T09:54:17;106947.16;;;8.05;100.00
7309;BME280;3695;53.330;9.876;2023-02-18T09:56:45;107195.69;;;8.13;100.00
7309;BME280;3695;53.330;9.876;2023-02-18T09:59:15;107185.50;;;8.23;100.00
7309;BME280;3695;53.330;9.876;2023-02-18T10:01:43;107291.72;;;8.28;100.00
7309;BME280;3695;53.330;9.876;2023-02-18T10:04:14;107295.75;;;8.45;100.00
7309;BME280;3695;53.330;9.876;2023-02-18T10:06:43;107321.59;;;8.57;100.00
7309;BME280;3695;53.330;9.876;2023-02-18T10:09:17;110293.63;;;8.61;100.00
7309;BME280;3695;53.330;9.876;2023-02-18T10:11:48;114592.88;;;8.76;100.00
7309;BME280;3695;53.330;9.876;2023-02-18T10:14:17;115395.31;;;8.78;100.00
7309;BME280;3695;53.330;9.876;2023-02-18T10:16:45;115896.75;;;8.98;100.00
7309;BME280;3695;53.330;9.876;2023-02-18T10:19:20;116173.13;;;9.09;100.00
7309;BME280;3695;53.330;9.876;2023-02-18T10:21:47;116781.22;;;9.15;100.00
7309;BME280;3695;53.330;9.876;2023-02-18T10:24:24;117731.34;;;9.30;100.00
7309;BME280;3695;53.330;9.876;2023-02-18T10:26:52;117883.03;;;9.40;100.00
7309;BME280;3695;53.330;9.876;2023-02-18T10:29:20;118041.47;;;9.39;100.00
7309;BME280;3695;53.330;9.876;2023-02-18T10:31:51;118649.53;;;9.51;100.00
7309;BME280;3695;53.330;9.876;2023-02-18T10:34:23;118488.69;;;9.61;100.00
7309;BME280;3695;53.330;9.876;2023-02-18T10:37:00;118591.72;;;9.65;100.00
7309;BME280;3695;53.330;9.876;2023-02-18T10:39:50;119307.00;;;9.82;100.00
7309;BME280;3695;53.330;9.876;2023-02-18T10:42:27;119475.66;;;10.09;100.00
7309;BME280;3695;53.330;9.876;2023-02-18T10:45:06;119154.59;;;9.87;100.00
7309;BME280;3695;53.330;9.876;2023-02-18T10:47:39;119651.59;;;9.92;100.00
7309;BME280;3695;53.330;9.876;2023-02-18T10:50:10;119342.34;;;9.98;100.00
7309;BME280;3695;53.330;9.876;2023-02-18T10:52:40;119189.63;;;10.02;100.00
7309;BME280;3695;53.330;9.876;2023-02-18T10:55:10;119364.03;;;10.09;100.00
7309;BME280;3695;53.330;9.876;2023-02-18T10:57:46;118994.44;;;10.20;100.00
7309;BME280;3695;53.330;9.876;2023-02-18T11:00:18;118736.56;;;10.19;100.00
7309;BME280;3695;53.330;9.876;2023-02-18T11:03:01;118071.31;;;10.24;100.00
7309;BME280;3695;53.330;9.876;2023-02-18T11:05:29;117819.75;;;10.29;100.00
7309;BME280;3695;53.330;9.876;2023-02-18T11:07:56;117539.59;;;10.23;100.00
7309;BME280;3695;53.330;9.876;2023-02-18T11:10:26;117741.50;;;10.14;100.00
7309;BME280;3695;53.330;9.876;2023-02-18T11:12:57;117869.81;;;10.17;100.00
7309;BME280;3695;53.330;9.876;2023-02-18T11:15:26;118060.88;;;10.34;100.00
7309;BME280;3695;53.330;9.876;2023-02-18T11:17:54;118007.16;;;10.26;100.00
7309;BME280;3695;53.330;9.876;2023-02-18T11:20:27;117861.94;;;10.25;100.00
7309;BME280;3695;53.330;9.876;2023-02-18T11:23:15;117782.78;;;10.24;100.00
7309;BME280;3695;53.330;9.876;2023-02-18T11:25:55;117973.13;;;10.22;100.00
7309;BME280;3695;53.330;9.876;2023-02-18T11:28:29;118264.03;;;10.14;100.00
7309;BME280;3695;53.330;9.876;2023-02-18T11:30:57;118009.19;;;10.14;100.00
7309;BME280;3695;53.330;9.876;2023-02-18T11:33:31;117615.38;;;10.13;100.00
7309;BME280;3695;53.330;9.876;2023-02-18T11:36:04;117149.47;;;10.16;100.00
7309;BME280;3695;53.330;9.876;2023-02-18T11:38:42;116572.34;;;10.28;100.00
7309;BME280;3695;53.330;9.876;2023-02-18T11:41:14;116540.97;;;10.32;100.00
7309;BME280;3695;53.330;9.876;2023-02-18T11:43:42;116409.38;;;10.23;100.00
7309;BME280;3695;53.330;9.876;2023-02-18T11:46:10;116399.47;;;10.32;100.00
7309;BME280;3695;53.330;9.876;2023-02-18T11:48:37;116196.22;;;10.31;100.00
7309;BME280;3695;53.330;9.876;2023-02-18T11:51:04;115905.47;;;10.08;100.00
7309;BME280;3695;53.330;9.876;2023-02-18T11:53:32;116122.25;;;10.18;100.00
7309;BME280;3695;53.330;9.876;2023-02-18T11:56:01;116285.94;;;10.14;100.00
7309;BME280;3695;53.330;9.876;2023-02-18T11:58:35;116385.00;;;10.16;100.00
7309;BME280;3695;53.330;9.876;2023-02-18T12:01:05;116638.63;;;10.13;100.00
7309;BME280;3695;53.330;9.876;2023-02-18T12:03:43;116620.53;;;10.14;100.00
7309;BME280;3695;53.330;9.876;2023-02-18T12:06:14;116669.16;;;10.10;100.00
7309;BME280;3695;53.330;9.876;2023-02-18T12:08:47;117539.41;;;10.22;100.00
7309;BME280;3695;53.330;9.876;2023-02-18T12:11:23;117480.28;;;10.14;100.00
7309;BME280;3695;53.330;9.876;2023-02-18T12:13:55;117394.19;;;10.14;100.00
7309;BME280;3695;53.330;9.876;2023-02-18T12:16:31;117436.97;;;10.22;100.00
7309;BME280;3695;53.330;9.876;2023-02-18T12:19:12;117493.13;;;10.15;100.00
7309;BME280;3695;53.330;9.876;2023-02-18T12:21:50;117598.88;;;10.26;100.00
7309;BME280;3695;53.330;9.876;2023-02-18T12:24:30;117538.59;;;10.08;100.00
7309;BME280;3695;53.330;9.876;2023-02-18T12:27:05;117518.56;;;10.15;100.00
7309;BME280;3695;53.330;9.876;2023-02-18T12:29:51;117811.19;;;10.26;100.00
7309;BME280;3695;53.330;9.876;2023-02-18T12:32:35;117989.94;;;10.13;100.00
7309;BME280;3695;53.330;9.876;2023-02-18T12:35:17;118628.16;;;10.22;100.00
7309;BME280;3695;53.330;9.876;2023-02-18T12:37:59;118600.94;;;10.22;100.00
7309;BME280;3695;53.330;9.876;2023-02-18T12:40:41;118632.97;;;10.30;100.00
7309;BME280;3695;53.330;9.876;2023-02-18T12:43:21;118743.47;;;10.22;100.00
7309;BME280;3695;53.330;9.876;2023-02-18T12:46:06;118951.47;;;10.12;100.00
7309;BME280;3695;53.330;9.876;2023-02-18T12:48:59;114030.00;;;10.16;100.00
7309;BME280;3695;53.330;9.876;2023-02-18T12:51:37;114139.56;;;10.15;100.00
7309;BME280;3695;53.330;9.876;2023-02-18T12:54:25;114709.88;;;10.07;100.00
7309;BME280;3695;53.330;9.876;2023-02-18T12:57:17;114557.88;;;9.98;100.00
7309;BME280;3695;53.330;9.876;2023-02-18T13:00:13;114759.78;;;10.07;100.00
7309;BME280;3695;53.330;9.876;2023-02-18T13:03:20;115041.72;;;9.98;100.00
7309;BME280;3695;53.330;9.876;2023-02-18T13:05:56;115090.09;;;9.92;100.00
7309;BME280;3695;53.330;9.876;2023-02-18T13:08:35;115254.69;;;9.89;100.00
7309;BME280;3695;53.330;9.876;2023-02-18T13:11:13;114890.53;;;10.10;100.00
7309;BME280;3695;53.330;9.876;2023-02-18T13:13:49;114969.66;;;10.03;100.00
7309;BME280;3695;53.330;9.876;2023-02-18T13:16:18;115006.34;;;10.08;100.00
7309;BME280;3695;53.330;9.876;2023-02-18T13:18:55;114965.88;;;9.91;100.00
7309;BME280;3695;53.330;9.876;2023-02-18T13:21:24;114877.50;;;10.06;100.00
7309;BME280;3695;53.330;9.876;2023-02-18T13:23:54;115256.50;;;9.98;100.00
7309;BME280;3695;53.330;9.876;2023-02-18T13:26:21;115451.88;;;9.85;100.00
7309;BME280;3695;53.330;9.876;2023-02-18T13:28:55;115895.28;;;9.88;100.00
7309;BME280;3695;53.330;9.876;2023-02-18T13:31:33;115837.56;;;9.82;100.00